Time;durP1;ratioP1;P1;durP2;ratioP2;P2;SDS_P1;SDS_P2;PMS_P1;PMS_P2;Temp;Humidity;BMP_temperature;BMP_pressure;BME280_temperature;BME280_humidity;BME280_pressure;Samples;Min_cycle;Max_cycle;Signal;HPM_P1;HPM_P2
2022/10/24 00:00:24;;;;;;;10.43;9.61;;;;;;;11.44;85.87;100342.86;440231;120;922624;-76
2022/10/24 00:01:27;;;;;;;10.61;9.90;;;;;;;11.44;85.90;100344.75;440343;120;922602;-77
2022/10/24 00:02:30;;;;;;;9.90;9.20;;;;;;;11.44;85.88;100342.02;440366;120;923027;-77
2022/10/24 00:03:33;;;;;;;11.38;10.48;;;;;;;11.44;85.99;100342.02;440363;120;923450;-76
2022/10/24 00:04:38;;;;;;;10.32;9.59;;;;;;;11.44;85.96;100342.02;440398;120;922620;-76
2022/10/24 00:05:43;;;;;;;10.59;9.83;;;;;;;11.44;85.90;100337.39;440180;120;922602;-76
2022/10/24 00:06:46;;;;;;;10.97;10.07;;;;;;;11.44;85.90;100342.86;440036;120;930481;-76
2022/10/24 00:07:49;;;;;;;10.63;9.80;;;;;;;11.44;86.01;100334.66;440304;120;922532;-77
2022/10/24 00:08:52;;;;;;;11.61;10.61;;;;;;;11.45;86.00;100344.53;440277;118;922780;-74
2022/10/24 00:09:55;;;;;;;11.29;10.47;;;;;;;11.45;86.04;100347.26;440359;120;922612;-76
2022/10/24 00:10:58;;;;;;;12.23;11.33;;;;;;;11.46;85.91;100342.64;440402;120;922471;-75
2022/10/24 00:12:02;;;;;;;10.95;10.16;;;;;;;11.45;85.94;100340.96;440348;120;923030;-76
2022/10/24 00:13:06;;;;;;;10.88;9.99;;;;;;;11.45;85.90;100343.69;440166;120;922480;-77
2022/10/24 00:14:10;;;;;;;10.71;9.87;;;;;;;11.45;85.87;100341.80;440306;120;922639;-76
2022/10/24 00:15:13;;;;;;;10.26;9.55;;;;;;;11.46;85.92;100345.37;440326;120;922545;-76
2022/10/24 00:16:16;;;;;;;10.34;9.59;;;;;;;11.46;85.92;100348.09;441221;120;922868;-77
2022/10/24 00:17:19;;;;;;;9.18;8.48;;;;;;;11.46;85.94;100345.37;442414;120;922578;-76
2022/10/24 00:18:22;;;;;;;9.37;8.58;;;;;;;11.45;85.89;100349.98;442329;119;922554;-76
2022/10/24 00:19:25;;;;;;;9.03;8.33;;;;;;;11.46;85.91;100348.94;442274;120;922903;-77
2022/10/24 00:20:28;;;;;;;8.62;8.01;;;;;;;11.46;85.96;100350.83;457227;116;922479;-76
2022/10/24 00:21:31;;;;;;;8.14;7.58;;;;;;;11.45;85.99;100343.69;457285;116;922867;-76
2022/10/24 00:22:34;;;;;;;8.56;7.83;;;;;;;11.45;85.88;100349.16;457325;115;922523;-76
2022/10/24 00:23:37;;;;;;;7.76;7.24;;;;;;;11.44;85.91;100353.77;457346;114;922814;-76
2022/10/24 00:24:40;;;;;;;7.76;7.09;;;;;;;11.43;85.95;100351.27;457366;115;922567;-76
2022/10/24 00:25:43;;;;;;;6.64;6.14;;;;;;;11.43;85.95;100351.27;457319;116;922480;-77
2022/10/24 00:26:46;;;;;;;7.03;6.53;;;;;;;11.43;86.00;100348.53;457307;115;922817;-77
2022/10/24 00:27:49;;;;;;;6.06;5.66;;;;;;;11.43;86.04;100351.27;457366;116;923257;-78
2022/10/24 00:28:52;;;;;;;7.41;6.90;;;;;;;11.43;85.98;100352.09;457350;114;922420;-76
2022/10/24 00:29:55;;;;;;;5.45;5.02;;;;;;;11.42;86.00;100344.12;456334;115;922415;-76
2022/10/24 00:30:58;;;;;;;5.49;4.56;;;;;;;11.43;85.98;100351.27;454153;116;922521;-76
2022/10/24 00:32:01;;;;;;;5.47;5.08;;;;;;;11.42;86.07;100355.88;455910;116;922564;-77
2022/10/24 00:33:04;;;;;;;4.60;4.20;;;;;;;11.41;86.00;100348.75;457328;115;922750;-76
2022/10/24 00:34:07;;;;;;;4.53;4.22;;;;;;;11.41;86.08;100347.94;462139;113;922425;-76
2022/10/24 00:35:10;;;;;;;4.39;4.04;;;;;;;11.40;86.01;100346.27;466495;113;922484;-76
2022/10/24 00:36:17;;;;;;;4.53;4.18;;;;;;;11.40;86.05;100349.00;466395;113;922896;-77
2022/10/24 00:37:20;;;;;;;3.14;2.93;;;;;;;11.38;86.12;100351.94;466271;113;922495;-76
2022/10/24 00:38:23;;;;;;;2.72;2.54;;;;;;;11.37;86.04;100350.27;466523;113;922542;-77
2022/10/24 00:39:26;;;;;;;3.15;2.87;;;;;;;11.37;86.06;100349.43;466473;113;923039;-75
2022/10/24 00:40:28;;;;;;;2.26;2.02;;;;;;;11.37;86.13;100349.43;466481;113;923028;-77
2022/10/24 00:41:37;;;;;;;2.08;1.94;;;;;;;11.35;86.14;100355.14;466459;113;922348;-77
2022/10/24 00:42:40;;;;;;;2.12;1.99;;;;;;;11.35;86.14;100351.57;466199;113;923071;-77
2022/10/24 00:43:43;;;;;;;2.24;2.08;;;;;;;11.33;86.14;100351.79;466421;113;923106;-77
2022/10/24 00:44:48;;;;;;;1.62;1.42;;;;;;;11.33;86.25;100359.14;466494;113;923015;-76
2022/10/24 00:46:00;;;;;;;2.58;1.54;;;;;;;11.32;86.27;100349.27;466301;113;923002;-76
2022/10/24 00:47:15;;;;;;;2.06;1.74;;;;;;;11.30;86.28;100350.33;456932;116;923120;-79
2022/10/24 00:48:25;;;;;;;2.68;1.67;;;;;;;11.28;86.31;100354.36;457099;113;922928;-75
2022/10/24 00:49:34;;;;;;;1.71;1.61;;;;;;;11.27;86.34;100358.98;466263;113;922895;-75
2022/10/24 00:50:46;;;;;;;2.73;1.92;;;;;;;11.37;86.50;100363.08;477081;110;946849;-79
2022/10/24 00:51:52;;;;;;;1.55;1.40;;;;;;;11.24;86.53;100361.34;465530;114;922524;-78
2022/10/24 00:52:55;;;;;;;1.98;1.60;;;;;;;11.24;86.57;100359.45;465340;114;922830;-76
2022/10/24 00:54:01;;;;;;;1.72;1.62;;;;;;;11.22;86.57;100357.98;462122;113;922525;-77
2022/10/24 00:55:05;;;;;;;1.57;1.37;;;;;;;11.21;86.63;100359.03;457152;115;922828;-77
2022/10/24 00:56:12;;;;;;;1.67;1.57;;;;;;;11.20;86.68;100368.28;457327;115;922479;-78
2022/10/24 00:57:37;;;;;;;1.69;1.59;;;;;;;11.20;86.62;100360.92;457238;116;930382;-78
2022/10/24 00:58:42;;;;;;;1.81;1.48;;;;;;;11.18;86.64;100360.34;457281;114;922594;-77
2022/10/24 00:59:47;;;;;;;1.42;1.32;;;;;;;11.18;86.68;100362.23;457285;115;922933;-77
2022/10/24 01:00:50;;;;;;;1.49;1.39;;;;;;;11.16;86.75;100359.72;457290;116;923035;-76
2022/10/24 01:01:53;;;;;;;1.42;1.32;;;;;;;11.16;86.73;100361.61;457508;115;923021;-78
2022/10/24 01:02:57;;;;;;;1.24;1.16;;;;;;;11.15;86.85;100362.66;457462;115;922413;-76
2022/10/24 01:04:00;;;;;;;1.55;1.25;;;;;;;11.15;86.85;100362.66;457338;114;930285;-77
2022/10/24 01:05:05;;;;;;;1.52;1.39;;;;;;;11.14;86.78;100355.52;457500;115;930455;-78
2022/10/24 01:06:23;;;;;;;1.23;1.16;;;;;;;11.13;86.77;100357.45;457408;115;923048;-77
2022/10/24 01:08:03;;;;;;;1.09;0.98;;;;;;;11.14;86.94;100355.52;450616;117;923521;-77
2022/10/24 01:09:21;;;;;;;1.11;1.01;;;;;;;11.13;86.96;100356.61;457255;116;923121;-77
2022/10/24 01:10:39;;;;;;;1.69;1.18;;;;;;;11.12;86.88;100360.39;457227;116;922994;-77
2022/10/24 01:12:05;;;;;;;1.41;1.08;;;;;;;11.11;86.97;100359.55;457325;116;923150;-77
2022/10/24 01:13:29;;;;;;;0.94;0.94;;;;;;;11.07;86.86;100361.07;457317;116;922868;-78
2022/10/24 01:14:51;;;;;;;0.96;0.96;;;;;;;11.04;86.95;100366.95;457341;116;922816;-76
2022/10/24 01:16:03;;;;;;;1.13;1.08;;;;;;;11.02;86.96;100362.80;455946;116;922833;-77
2022/10/24 01:17:44;;;;;;;1.26;1.16;;;;;;;10.99;86.99;100357.77;437751;118;923315;-76
2022/10/24 01:18:51;;;;;;;1.27;0.97;;;;;;;10.97;86.98;100365.36;456175;115;922894;-75
2022/10/24 01:20:24;;;;;;;1.21;1.12;;;;;;;10.94;87.10;100372.08;455989;116;922987;-76
2022/10/24 01:21:50;;;;;;;1.59;1.15;;;;;;;10.92;87.17;100371.45;456087;116;922717;-77
2022/10/24 01:23:14;;;;;;;1.40;1.30;;;;;;;10.89;87.14;100371.91;456059;116;922539;-75
2022/10/24 01:24:23;;;;;;;1.41;1.31;;;;;;;10.87;87.18;100371.29;456092;116;922530;-75
2022/10/24 01:25:45;;;;;;;1.24;1.14;;;;;;;10.84;87.20;100367.13;455118;116;922592;-76
2022/10/24 01:27:14;;;;;;;1.46;1.35;;;;;;;10.82;87.30;100371.95;455342;116;922985;-76
2022/10/24 01:28:48;;;;;;;1.39;1.32;;;;;;;10.82;87.31;100373.84;454342;116;922524;-76
2022/10/24 01:30:08;;;;;;;1.93;1.50;;;;;;;10.81;87.35;100375.73;439608;120;923220;-77
2022/10/24 01:31:18;;;;;;;1.59;1.49;;;;;;;10.78;87.37;100376.20;456768;116;922568;-76
2022/10/24 01:32:24;;;;;;;1.61;1.51;;;;;;;10.77;87.53;100381.86;457303;115;923179;-77
2022/10/24 01:33:34;;;;;;;1.53;1.43;;;;;;;10.76;87.51;100382.91;457340;116;922786;-76
2022/10/24 01:34:43;;;;;;;1.71;1.61;;;;;;;10.75;87.46;100384.80;449449;118;923020;-77
2022/10/24 01:35:55;;;;;;;1.57;1.47;;;;;;;10.76;87.46;100391.09;449366;116;922961;-76
2022/10/24 01:37:02;;;;;;;1.68;1.58;;;;;;;10.75;87.49;100390.25;449444;118;922487;-76
2022/10/24 01:38:17;;;;;;;1.61;1.51;;;;;;;10.77;87.48;100395.49;448746;117;922961;-76
2022/10/24 01:39:23;;;;;;;1.70;1.60;;;;;;;10.76;87.44;100396.55;449436;118;922510;-75
2022/10/24 01:40:32;;;;;;;2.44;1.88;;;;;;;10.75;87.51;100392.17;449261;117;922555;-77
2022/10/24 01:41:35;;;;;;;1.98;1.62;;;;;;;10.75;87.45;100383.99;449471;117;923037;-77
2022/10/24 01:42:41;;;;;;;1.93;1.83;;;;;;;10.75;87.44;100392.17;449631;117;922512;-76
2022/10/24 01:43:53;;;;;;;3.02;2.80;;;;;;;10.76;87.43;100388.37;449349;118;930336;-76
2022/10/24 01:44:58;;;;;;;2.03;1.93;;;;;;;10.75;87.43;100390.25;449452;118;922466;-76
2022/10/24 01:46:04;;;;;;;2.40;2.20;;;;;;;10.78;87.40;100394.45;449432;117;922960;-75
2022/10/24 01:47:14;;;;;;;2.43;2.28;;;;;;;10.78;87.50;100394.45;449426;117;922983;-76
2022/10/24 01:48:20;;;;;;;2.82;2.57;;;;;;;10.78;87.47;100392.55;449440;117;922483;-76
2022/10/24 01:49:27;;;;;;;2.24;2.11;;;;;;;10.79;87.47;100401.58;449363;118;922552;-76
2022/10/24 01:50:32;;;;;;;2.94;2.35;;;;;;;10.79;87.43;100405.14;449432;117;922592;-76
2022/10/24 01:51:37;;;;;;;2.57;2.37;;;;;;;10.80;87.47;100398.64;449621;117;922581;-76
2022/10/24 01:52:42;;;;;;;2.63;2.43;;;;;;;10.79;87.46;100396.96;441458;119;922669;-76
2022/10/24 01:53:47;;;;;;;2.28;2.18;;;;;;;10.80;87.57;100395.91;442094;118;922682;-76
2022/10/24 01:54:50;;;;;;;2.36;2.21;;;;;;;10.82;87.44;100403.84;449758;118;922729;-76
2022/10/24 01:55:54;;;;;;;3.37;3.09;;;;;;;10.81;87.44;100408.47;449709;117;922967;-77
2022/10/24 01:56:57;;;;;;;3.00;2.80;;;;;;;10.81;87.48;100396.72;449730;117;922943;-76
2022/10/24 01:58:00;;;;;;;2.81;2.39;;;;;;;10.81;87.50;100407.63;449747;117;923077;-75
2022/10/24 01:59:09;;;;;;;2.66;2.46;;;;;;;10.79;87.46;100412.48;449747;117;923001;-77
2022/10/24 02:00:21;;;;;;;2.84;2.64;;;;;;;10.78;87.48;100405.36;447444;118;922574;-76
2022/10/24 02:01:24;;;;;;;2.56;2.36;;;;;;;10.75;87.68;100403.89;449534;118;930439;-77
2022/10/24 02:02:34;;;;;;;3.45;2.73;;;;;;;10.75;87.64;100411.27;449657;117;922632;-76
2022/10/24 02:03:43;;;;;;;3.06;2.61;;;;;;;10.73;87.73;100406.02;449436;117;923076;-75
2022/10/24 02:04:59;;;;;;;2.26;2.11;;;;;;;10.73;87.73;100411.48;449498;117;922989;-76
2022/10/24 02:06:08;;;;;;;3.01;2.81;;;;;;;10.73;87.85;100421.55;449459;117;923041;-76
2022/10/24 02:07:13;;;;;;;2.93;2.73;;;;;;;10.72;87.78;100420.70;449630;117;923309;-76
2022/10/24 02:08:19;;;;;;;2.50;2.30;;;;;;;10.71;87.81;100416.30;449563;117;922496;-77
2022/10/24 02:09:24;;;;;;;3.08;2.88;;;;;;;10.71;87.88;100418.19;449417;118;930331;-77
2022/10/24 02:10:30;;;;;;;2.73;2.53;;;;;;;10.71;87.90;100419.03;449557;117;922982;-77
2022/10/24 02:11:34;;;;;;;2.89;2.63;;;;;;;10.71;88.00;100427.20;449504;118;922491;-76
2022/10/24 02:12:41;;;;;;;2.75;2.55;;;;;;;10.71;87.99;100423.64;449652;117;922381;-77
2022/10/24 02:13:47;;;;;;;2.92;2.72;;;;;;;10.71;87.91;100418.19;455309;116;923005;-76
2022/10/24 02:14:57;;;;;;;2.66;2.47;;;;;;;10.70;87.93;100422.80;456950;115;922483;-76
2022/10/24 02:16:02;;;;;;;2.49;2.34;;;;;;;10.69;87.97;100426.61;457325;115;922949;-77
2022/10/24 02:17:05;;;;;;;2.52;2.32;;;;;;;10.70;88.00;100424.69;457532;116;922493;-76
2022/10/24 02:18:09;;;;;;;2.51;2.31;;;;;;;10.68;87.97;100424.09;457624;116;922631;-77
2022/10/24 02:19:13;;;;;;;2.44;2.12;;;;;;;10.68;88.02;100424.09;457429;116;923019;-78
2022/10/24 02:20:17;;;;;;;2.95;2.68;;;;;;;10.67;88.14;100417.80;457506;116;930397;-76
2022/10/24 02:21:32;;;;;;;2.13;2.03;;;;;;;10.69;88.19;100425.77;457583;116;922445;-77
2022/10/24 02:22:51;;;;;;;2.92;2.37;;;;;;;10.71;88.17;100434.55;457363;116;922487;-76
2022/10/24 02:24:06;;;;;;;2.52;2.36;;;;;;;10.70;88.15;100428.26;456816;116;923121;-76
2022/10/24 02:25:27;;;;;;;2.23;2.06;;;;;;;10.71;88.18;100429.09;457121;116;922483;-77
2022/10/24 02:26:34;;;;;;;2.37;2.23;;;;;;;10.72;88.23;100431.61;436179;121;923122;-76
2022/10/24 02:27:43;;;;;;;2.51;2.26;;;;;;;10.72;88.23;100433.50;436119;121;923727;-76
2022/10/24 02:28:57;;;;;;;2.61;2.06;;;;;;;10.83;88.35;100433.64;473992;110;946836;-76
2022/10/24 02:30:04;;;;;;;2.19;2.05;;;;;;;10.72;88.32;100434.34;458457;115;923101;-76
2022/10/24 02:31:10;;;;;;;2.22;2.06;;;;;;;10.73;88.25;100435.18;456948;115;922871;-77
2022/10/24 02:32:17;;;;;;;2.07;1.90;;;;;;;10.73;88.26;100440.63;456984;115;922497;-77
2022/10/24 02:33:21;;;;;;;1.88;1.78;;;;;;;10.72;88.34;100436.23;457024;116;922659;-75
2022/10/24 02:34:27;;;;;;;1.67;1.57;;;;;;;10.72;88.33;100437.06;457350;114;922938;-75
2022/10/24 02:35:34;;;;;;;1.91;1.81;;;;;;;10.73;88.32;100440.63;448625;118;922809;-76
2022/10/24 02:36:39;;;;;;;1.97;1.72;;;;;;;10.73;88.18;100437.91;457220;116;923059;-76
2022/10/24 02:37:46;;;;;;;1.71;1.61;;;;;;;10.72;88.12;100434.34;457294;116;922546;-76
2022/10/24 02:38:52;;;;;;;1.57;1.47;;;;;;;10.72;88.16;100442.52;457242;114;922997;-77
2022/10/24 02:39:58;;;;;;;1.97;1.55;;;;;;;10.73;88.19;100446.09;457285;116;922807;-75
2022/10/24 02:41:04;;;;;;;1.58;1.31;;;;;;;10.72;88.11;100449.86;457281;116;923576;-77
2022/10/24 02:42:10;;;;;;;1.51;1.41;;;;;;;10.70;88.11;100447.34;457300;116;922608;-76
2022/10/24 02:43:13;;;;;;;1.33;1.23;;;;;;;10.68;88.09;100456.81;457312;116;922521;-76
2022/10/24 02:44:18;;;;;;;1.52;1.42;;;;;;;10.66;88.11;100454.30;457391;114;922524;-77
2022/10/24 02:45:22;;;;;;;1.14;1.13;;;;;;;10.65;88.18;100459.96;457408;115;922463;-75
2022/10/24 02:46:26;;;;;;;1.31;1.23;;;;;;;10.64;88.26;100459.12;457464;115;922817;-77
2022/10/24 02:47:30;;;;;;;1.66;1.56;;;;;;;10.62;88.14;100458.53;457427;115;922989;-75
2022/10/24 02:48:37;;;;;;;2.18;1.54;;;;;;;10.61;88.22;100456.84;457268;114;923052;-76
2022/10/24 02:49:40;;;;;;;1.30;1.20;;;;;;;10.60;88.26;100459.78;448673;118;927920;-76
2022/10/24 02:50:44;;;;;;;1.15;1.08;;;;;;;10.58;88.29;100464.64;457405;116;922713;-76
2022/10/24 02:51:48;;;;;;;1.37;1.27;;;;;;;10.56;88.33;100464.00;458921;114;922535;-76
2022/10/24 02:52:51;;;;;;;1.60;1.25;;;;;;;10.55;88.29;100457.72;462741;114;922963;-76
2022/10/24 02:53:55;;;;;;;1.36;1.26;;;;;;;10.54;88.33;100463.38;462833;114;922655;-76
2022/10/24 02:54:58;;;;;;;1.54;1.24;;;;;;;10.53;88.36;100467.19;462707;114;922880;-76
2022/10/24 02:56:01;;;;;;;1.26;1.16;;;;;;;10.54;88.41;100463.38;462808;114;922994;-76
2022/10/24 02:57:04;;;;;;;1.34;1.02;;;;;;;10.55;88.44;100462.33;462747;114;922944;-75
2022/10/24 02:58:07;;;;;;;1.30;1.20;;;;;;;10.54;88.49;100466.10;462806;114;922558;-76
2022/10/24 02:59:10;;;;;;;1.00;1.00;;;;;;;10.55;88.42;100467.78;462823;114;922447;-76
2022/10/24 03:00:14;;;;;;;0.93;0.90;;;;;;;10.56;88.55;100469.46;462746;114;922472;-76
2022/10/24 03:01:17;;;;;;;1.41;1.31;;;;;;;10.56;88.46;100461.28;462754;114;922494;-76
2022/10/24 03:02:21;;;;;;;1.20;1.10;;;;;;;10.56;88.45;100466.73;462766;114;930163;-75
2022/10/24 03:03:24;;;;;;;2.95;1.22;;;;;;;10.56;88.48;100474.91;462607;114;922472;-76
2022/10/24 03:04:27;;;;;;;0.93;0.91;;;;;;;10.54;88.49;100466.94;462782;114;922537;-76
2022/10/24 03:05:30;;;;;;;1.16;1.06;;;;;;;10.53;88.66;100476.17;462862;114;923170;-77
2022/10/24 03:06:33;;;;;;;1.09;1.00;;;;;;;10.53;88.68;100480.81;462890;114;922659;-76
2022/10/24 03:07:36;;;;;;;1.70;0.92;;;;;;;10.53;88.67;100467.19;462821;114;922483;-76
2022/10/24 03:08:39;;;;;;;1.32;1.22;;;;;;;10.54;88.71;100471.55;462810;114;922799;-77
2022/10/24 03:09:42;;;;;;;1.19;0.91;;;;;;;10.54;88.75;100477.01;460523;114;922606;-76
2022/10/24 03:10:45;;;;;;;2.78;1.26;;;;;;;10.54;88.67;100475.13;457484;115;922406;-75
2022/10/24 03:11:48;;;;;;;1.00;1.00;;;;;;;10.53;88.75;100478.09;457537;115;922563;-75
2022/10/24 03:12:51;;;;;;;0.90;0.89;;;;;;;10.53;88.69;100478.89;457495;116;923015;-76
2022/10/24 03:13:54;;;;;;;1.21;1.11;;;;;;;10.53;88.77;100480.81;457472;116;922541;-77
2022/10/24 03:14:57;;;;;;;1.07;1.07;;;;;;;10.52;88.73;100484.59;457524;115;922917;-76
2022/10/24 03:15:59;;;;;;;1.16;1.02;;;;;;;10.51;88.82;100480.18;457454;115;922844;-76
2022/10/24 03:17:02;;;;;;;0.92;0.92;;;;;;;10.51;88.78;100481.02;457322;116;923041;-75
2022/10/24 03:18:05;;;;;;;1.12;1.07;;;;;;;10.51;88.86;100480.18;457388;116;922945;-75
2022/10/24 03:19:08;;;;;;;1.19;1.17;;;;;;;10.52;88.77;100484.59;457319;114;922642;-76
2022/10/24 03:20:12;;;;;;;1.09;1.09;;;;;;;10.51;88.77;100481.02;457241;116;922527;-77
2022/10/24 03:21:15;;;;;;;1.29;1.26;;;;;;;10.51;88.76;100485.64;457366;116;922500;-76
2022/10/24 03:22:18;;;;;;;1.41;1.31;;;;;;;10.51;88.75;100486.47;457369;116;922479;-75
2022/10/24 03:23:21;;;;;;;1.52;1.42;;;;;;;10.51;88.74;100485.64;457334;116;923076;-77
2022/10/24 03:24:24;;;;;;;1.29;1.24;;;;;;;10.51;88.75;100491.09;457304;114;922844;-76
2022/10/24 03:25:29;;;;;;;1.25;1.20;;;;;;;10.50;88.78;100494.86;457097;116;922720;-76
2022/10/24 03:26:32;;;;;;;1.27;1.27;;;;;;;10.50;88.79;100483.95;457259;116;930204;-76
2022/10/24 03:27:35;;;;;;;2.83;1.30;;;;;;;10.51;88.79;100496.53;457257;116;922874;-76
2022/10/24 03:28:38;;;;;;;1.04;1.04;;;;;;;10.49;88.76;100499.47;457180;116;923208;-76
2022/10/24 03:29:41;;;;;;;1.18;1.08;;;;;;;10.48;88.73;100496.95;457413;115;923091;-76
2022/10/24 03:30:44;;;;;;;1.34;1.24;;;;;;;10.48;88.77;100494.23;458971;115;923008;-76
2022/10/24 03:31:47;;;;;;;1.84;1.54;;;;;;;10.48;88.90;100494.23;458446;115;923051;-76
2022/10/24 03:32:50;;;;;;;1.92;1.76;;;;;;;10.47;88.80;100495.31;457510;115;922456;-75
2022/10/24 03:33:53;;;;;;;1.59;1.49;;;;;;;10.46;88.69;100494.47;460259;113;922963;-76
2022/10/24 03:34:55;;;;;;;1.76;1.66;;;;;;;10.45;88.67;100492.78;466666;113;922549;-77
2022/10/24 03:35:58;;;;;;;2.31;1.67;;;;;;;10.43;88.62;100500.33;466649;113;923038;-76
2022/10/24 03:37:01;;;;;;;1.68;1.58;;;;;;;10.41;88.57;100492.39;466670;113;922463;-76
2022/10/24 03:38:07;;;;;;;1.63;1.53;;;;;;;10.39;88.60;100499.94;466668;113;922863;-76
2022/10/24 03:39:09;;;;;;;1.62;1.52;;;;;;;10.39;88.63;100508.11;466451;113;924259;-77
2022/10/24 03:40:12;;;;;;;2.02;1.46;;;;;;;10.39;88.63;100508.11;466528;113;922421;-77
2022/10/24 03:41:15;;;;;;;1.62;1.52;;;;;;;10.38;88.63;100506.44;466517;113;923248;-76
2022/10/24 03:42:18;;;;;;;1.56;1.49;;;;;;;10.39;88.55;100502.66;466530;113;922660;-76
2022/10/24 03:43:21;;;;;;;2.58;1.50;;;;;;;10.40;88.57;100503.50;466509;113;922849;-77
2022/10/24 03:44:24;;;;;;;1.56;1.41;;;;;;;10.41;88.56;100505.19;466498;113;922976;-76
2022/10/24 03:45:27;;;;;;;2.50;1.81;;;;;;;10.41;88.61;100507.91;466549;113;923015;-76
2022/10/24 03:46:30;;;;;;;1.71;1.61;;;;;;;10.42;88.48;100506.83;466510;113;922437;-76
2022/10/24 03:47:33;;;;;;;1.82;1.72;;;;;;;10.42;88.43;100518.58;466505;113;922357;-76
2022/10/24 03:48:36;;;;;;;2.37;1.88;;;;;;;10.42;88.42;100513.12;466442;113;922695;-75
2022/10/24 03:49:39;;;;;;;1.76;1.66;;;;;;;10.42;88.41;100517.73;466507;113;922960;-76
2022/10/24 03:50:42;;;;;;;2.07;1.73;;;;;;;10.43;88.40;100514.80;466431;113;922960;-76
2022/10/24 03:51:45;;;;;;;1.58;1.48;;;;;;;10.45;88.44;100514.59;464100;113;930383;-76
2022/10/24 03:52:48;;;;;;;1.90;1.80;;;;;;;10.44;88.29;100521.93;457369;116;922539;-76
2022/10/24 03:53:51;;;;;;;1.75;1.65;;;;;;;10.44;88.27;100521.93;457275;114;923145;-76
2022/10/24 03:54:54;;;;;;;1.62;1.47;;;;;;;10.45;88.25;100515.44;457379;116;923197;-76
2022/10/24 03:55:56;;;;;;;1.89;1.64;;;;;;;10.45;88.21;100518.16;457317;116;922573;-75
2022/10/24 03:57:00;;;;;;;1.89;1.67;;;;;;;10.45;88.14;100512.70;457339;116;922506;-76
2022/10/24 03:58:03;;;;;;;1.91;1.61;;;;;;;10.46;88.04;100521.73;457270;116;922773;-76
2022/10/24 03:59:06;;;;;;;2.02;1.92;;;;;;;10.45;87.94;100518.16;457263;114;922503;-76
2022/10/24 04:00:10;;;;;;;1.66;1.56;;;;;;;10.44;87.91;100524.66;457335;116;923018;-76
2022/10/24 04:01:16;;;;;;;1.84;1.74;;;;;;;10.44;87.94;100521.09;457245;115;922498;-76
2022/10/24 04:02:17;;;;;;;1.88;1.78;;;;;;;10.44;87.88;100524.66;457123;115;923066;-76
2022/10/24 04:03:20;;;;;;;2.34;1.94;;;;;;;10.44;87.82;100526.55;457367;116;922604;-76
2022/10/24 04:04:23;;;;;;;1.72;1.62;;;;;;;10.44;87.81;100530.11;457333;114;922483;-77
2022/10/24 04:05:26;;;;;;;1.66;1.56;;;;;;;10.44;87.78;100526.55;457395;116;922488;-76
2022/10/24 04:06:29;;;;;;;2.16;1.96;;;;;;;10.44;87.74;100534.72;449510;117;922518;-77
2022/10/24 04:07:34;;;;;;;1.88;1.69;;;;;;;10.44;87.77;100529.27;448990;117;922491;-76
2022/10/24 04:08:37;;;;;;;2.04;1.71;;;;;;;10.45;87.69;100526.34;449510;116;923429;-76
2022/10/24 04:09:40;;;;;;;2.08;1.98;;;;;;;10.46;87.59;100521.73;449500;118;922511;-78
2022/10/24 04:10:43;;;;;;;1.90;1.80;;;;;;;10.46;87.61;100532.63;449518;118;923020;-76
2022/10/24 04:11:47;;;;;;;1.82;1.71;;;;;;;10.48;87.59;100532.39;449544;117;922957;-76
2022/10/24 04:12:50;;;;;;;1.71;1.61;;;;;;;10.46;87.35;100527.17;449467;117;923241;-75
2022/10/24 04:13:53;;;;;;;1.74;1.61;;;;;;;10.45;87.40;100526.34;449423;116;930409;-75
2022/10/24 04:14:56;;;;;;;1.77;1.67;;;;;;;10.44;87.28;100532.84;449509;117;923176;-76
2022/10/24 04:16:01;;;;;;;1.84;1.74;;;;;;;10.44;87.28;100535.56;450783;116;922652;-75
2022/10/24 04:17:04;;;;;;;1.71;1.61;;;;;;;10.45;87.28;100533.67;457245;116;922528;-75
2022/10/24 04:18:07;;;;;;;1.86;1.73;;;;;;;10.44;87.33;100538.28;457246;116;923105;-75
2022/10/24 04:19:22;;;;;;;1.92;1.82;;;;;;;10.44;87.27;100538.28;457177;116;922653;-75
2022/10/24 04:22:43;;;;;;;1.78;1.68;;;;;;;10.44;87.14;100543.73;457027;116;923001;-75
2022/10/24 04:23:46;;;;;;;1.81;1.71;;;;;;;10.43;87.26;100543.94;457084;116;922506;-76
2022/10/24 04:24:49;;;;;;;1.59;1.51;;;;;;;10.42;87.25;100534.92;457243;116;922734;-76
2022/10/24 04:25:52;;;;;;;2.02;1.76;;;;;;;10.42;87.20;100542.27;457190;116;922843;-76
2022/10/24 04:26:55;;;;;;;2.41;2.00;;;;;;;10.41;87.15;100549.63;457121;116;922627;-76
2022/10/24 04:27:58;;;;;;;2.11;2.01;;;;;;;10.42;87.14;100551.28;457293;116;922585;-76
2022/10/24 04:29:01;;;;;;;2.10;1.79;;;;;;;10.40;86.97;100547.95;456572;116;923257;-76
2022/10/24 04:30:09;;;;;;;1.80;1.70;;;;;;;10.41;86.99;100551.52;449634;116;922563;-75
2022/10/24 04:31:14;;;;;;;1.84;1.72;;;;;;;10.41;86.95;100555.08;441683;119;922635;-76
2022/10/24 04:32:19;;;;;;;1.92;1.81;;;;;;;10.40;86.84;100556.13;447403;118;922550;-76
2022/10/24 04:33:23;;;;;;;2.80;2.34;;;;;;;10.40;86.73;100566.19;450067;118;922594;-76
2022/10/24 04:34:26;;;;;;;1.98;1.88;;;;;;;10.37;86.53;100559.27;457343;115;923096;-76
2022/10/24 04:35:29;;;;;;;2.74;2.39;;;;;;;10.35;86.53;100564.11;458499;115;922658;-76
2022/10/24 04:36:33;;;;;;;1.89;1.79;;;;;;;10.34;86.50;100564.32;449913;117;922587;-76
2022/10/24 04:37:35;;;;;;;2.06;1.96;;;;;;;10.33;86.47;100563.48;449870;118;922912;-76
2022/10/24 04:38:38;;;;;;;2.66;2.46;;;;;;;10.32;86.45;100560.95;449917;118;922993;-76
2022/10/24 04:39:41;;;;;;;2.51;2.31;;;;;;;10.32;86.35;100564.52;450005;118;922994;-75
2022/10/24 04:40:47;;;;;;;2.38;2.28;;;;;;;10.30;86.19;100563.92;449900;118;922472;-75
2022/10/24 04:41:50;;;;;;;2.70;2.50;;;;;;;10.27;86.14;100563.48;449775;118;922661;-75
2022/10/24 04:42:53;;;;;;;2.86;2.69;;;;;;;10.27;86.05;100569.78;450031;117;922594;-75
2022/10/24 04:43:56;;;;;;;2.42;2.14;;;;;;;10.25;85.96;100562.88;449913;118;922524;-76
2022/10/24 04:44:59;;;;;;;2.49;2.36;;;;;;;10.24;85.95;100563.92;450007;118;922988;-75
2022/10/24 04:46:02;;;;;;;3.01;2.81;;;;;;;10.23;85.97;100571.27;450056;118;922515;-75
2022/10/24 04:47:05;;;;;;;2.73;2.53;;;;;;;10.22;85.95;100566.86;449977;118;922581;-75
2022/10/24 04:48:08;;;;;;;2.71;2.53;;;;;;;10.23;86.05;100581.33;449898;118;922552;-76
2022/10/24 04:49:11;;;;;;;4.03;2.92;;;;;;;10.24;85.99;100574.83;449910;117;922938;-75
2022/10/24 04:50:15;;;;;;;3.09;2.89;;;;;;;10.22;85.90;100585.93;449703;118;922986;-76
2022/10/24 04:51:18;;;;;;;2.81;2.62;;;;;;;10.22;85.95;100579.64;444623;119;925376;-75
2022/10/24 04:52:23;;;;;;;3.32;2.99;;;;;;;10.21;85.77;100576.08;435202;119;922981;-75
2022/10/24 04:53:26;;;;;;;3.02;2.83;;;;;;;10.21;85.83;100581.52;436514;121;923044;-76
2022/10/24 04:54:29;;;;;;;2.95;2.77;;;;;;;10.22;85.83;100590.54;436501;121;922569;-75
2022/10/24 04:55:32;;;;;;;3.16;2.96;;;;;;;10.21;85.84;100588.86;436550;121;922562;-76
2022/10/24 04:56:35;;;;;;;3.58;3.22;;;;;;;10.22;85.95;100591.38;436513;121;922953;-76
2022/10/24 04:57:38;;;;;;;2.74;2.54;;;;;;;10.22;85.83;100599.56;436481;121;922947;-77
2022/10/24 04:58:41;;;;;;;2.68;2.58;;;;;;;10.21;85.65;100592.42;436469;119;922563;-75
2022/10/24 04:59:43;;;;;;;2.95;2.74;;;;;;;10.20;85.59;100598.11;436486;121;923047;-75
2022/10/24 05:00:48;;;;;;;2.94;2.74;;;;;;;10.18;85.47;100600.20;436466;121;922568;-76
2022/10/24 05:01:53;;;;;;;2.92;2.76;;;;;;;10.16;85.48;100597.67;436397;121;922504;-77
2022/10/24 05:02:56;;;;;;;3.18;2.98;;;;;;;10.16;85.51;100603.13;437324;121;922505;-76
2022/10/24 05:04:01;;;;;;;3.23;3.03;;;;;;;10.17;85.51;100606.69;437364;119;922629;-77
2022/10/24 05:05:05;;;;;;;3.06;2.87;;;;;;;10.16;85.25;100611.30;437549;121;922579;-77